createdAt,value
2023-05-05T00:00:06.310Z,1006.8
2023-05-05T00:01:07.197Z,1006.8
2023-05-05T00:02:08.247Z,1006.8
2023-05-05T00:03:09.342Z,1006.8
2023-05-05T00:04:10.263Z,1006.8
2023-05-05T00:05:11.236Z,1006.8
2023-05-05T00:06:12.685Z,1006.8
2023-05-05T00:07:14.181Z,1006.8
2023-05-05T00:08:15.298Z,1006.8
2023-05-05T00:09:16.674Z,1006.8
2023-05-05T00:10:18.211Z,1006.8
2023-05-05T00:11:19.187Z,1006.8
2023-05-05T00:12:20.240Z,1006.8
2023-05-05T00:13:21.246Z,1006.8
2023-05-05T00:14:22.279Z,1006.8
2023-05-05T00:15:23.163Z,1006.8
2023-05-05T00:16:24.249Z,1006.9
2023-05-05T00:17:25.201Z,1006.8
2023-05-05T00:18:26.194Z,1006.8
2023-05-05T00:19:27.246Z,1006.9
2023-05-05T00:20:28.218Z,1006.8
2023-05-05T00:21:29.195Z,1006.8
2023-05-05T00:22:30.227Z,1006.8
2023-05-05T00:23:31.196Z,1006.8
2023-05-05T00:24:32.253Z,1006.8
2023-05-05T00:25:33.197Z,1006.7
2023-05-05T00:26:34.215Z,1006.7
2023-05-05T00:27:35.225Z,1006.7
2023-05-05T00:28:36.195Z,1006.6
2023-05-05T00:29:37.261Z,1006.6
2023-05-05T00:30:38.615Z,1006.6
2023-05-05T00:31:39.395Z,1006.7
2023-05-05T00:32:40.316Z,1006.7
2023-05-05T00:33:41.226Z,1006.7
2023-05-05T00:34:42.186Z,1006.6
2023-05-05T00:35:43.315Z,1006.6
2023-05-05T00:36:44.798Z,1006.6
2023-05-05T00:37:46.239Z,1006.6
2023-05-05T00:38:47.242Z,1006.6
2023-05-05T00:39:48.248Z,1006.5
2023-05-05T00:40:49.239Z,1006.5
2023-05-05T00:41:50.263Z,1006.6
2023-05-05T00:42:51.252Z,1006.6
2023-05-05T00:43:52.226Z,1006.6
2023-05-05T00:44:53.258Z,1006.6
2023-05-05T00:45:56.901Z,1006.6
2023-05-05T00:46:58.341Z,1006.6
2023-05-05T00:47:59.351Z,1006.6
2023-05-05T00:49:00.470Z,1006.5
2023-05-05T00:50:01.295Z,1006.6
2023-05-05T00:51:02.232Z,1006.6
2023-05-05T00:52:03.302Z,1006.6
2023-05-05T00:53:04.437Z,1006.5
2023-05-05T00:54:05.738Z,1006.5
2023-05-05T00:55:07.279Z,1006.5
2023-05-05T00:56:08.268Z,1006.6
2023-05-05T00:57:09.561Z,1006.6
2023-05-05T00:58:10.763Z,1006.5
2023-05-05T00:59:12.275Z,1006.5
2023-05-05T01:00:13.465Z,1006.6
2023-05-05T01:01:14.281Z,1006.5
2023-05-05T01:02:15.342Z,1006.5
2023-05-05T01:03:16.308Z,1006.5
2023-05-05T01:04:17.230Z,1006.5
2023-05-05T01:05:18.241Z,1006.5
2023-05-05T01:06:19.202Z,1006.5
2023-05-05T01:07:20.240Z,1006.4
2023-05-05T01:08:21.259Z,1006.4
2023-05-05T01:09:22.198Z,1006.4
2023-05-05T01:10:23.424Z,1006.4
2023-05-05T01:11:24.236Z,1006.4
2023-05-05T01:12:25.243Z,1006.4
2023-05-05T01:13:26.238Z,1006.4
2023-05-05T01:14:27.220Z,1006.4
2023-05-05T01:15:28.345Z,1006.4
2023-05-05T01:16:29.300Z,1006.4
2023-05-05T01:17:30.272Z,1006.4
2023-05-05T01:18:31.264Z,1006.4
2023-05-05T01:19:32.238Z,1006.4
2023-05-05T01:20:33.176Z,1006.4
2023-05-05T01:21:34.280Z,1006.4
2023-05-05T01:22:35.339Z,1006.4
2023-05-05T01:23:36.223Z,1006.4
2023-05-05T01:24:37.240Z,1006.4
2023-05-05T01:25:38.259Z,1006.4
2023-05-05T01:26:39.260Z,1006.4
2023-05-05T01:27:40.358Z,1006.4
2023-05-05T01:28:41.219Z,1006.3
2023-05-05T01:29:42.239Z,1006.3
2023-05-05T01:30:43.393Z,1006.3
2023-05-05T01:31:44.398Z,1006.3
2023-05-05T01:32:45.343Z,1006.3
2023-05-05T01:35:37.394Z,1006.3
2023-05-05T01:36:38.266Z,1006.4
2023-05-05T01:37:39.293Z,1006.4
2023-05-05T01:38:40.238Z,1006.3
2023-05-05T01:39:41.252Z,1006.3
2023-05-05T01:40:42.249Z,1006.3
2023-05-05T01:41:43.245Z,1006.3
2023-05-05T01:42:44.280Z,1006.3
2023-05-05T01:43:45.231Z,1006.3
2023-05-05T01:44:46.268Z,1006.3
2023-05-05T01:45:47.290Z,1006.3
2023-05-05T01:46:48.239Z,1006.2
2023-05-05T01:47:49.329Z,1006.3
2023-05-05T01:48:50.265Z,1006.3
2023-05-05T01:49:51.277Z,1006.2
2023-05-05T01:50:52.357Z,1006.2
2023-05-05T01:51:53.249Z,1006.2
2023-05-05T01:52:54.249Z,1006.2
2023-05-05T01:53:55.282Z,1006.2
2023-05-05T01:54:56.237Z,1006.2
2023-05-05T01:55:57.259Z,1006.2
2023-05-05T01:56:58.306Z,1006.2
2023-05-05T01:57:59.307Z,1005.9
2023-05-05T01:59:00.245Z,1006.1
2023-05-05T02:00:01.280Z,1006.2
2023-05-05T02:01:02.390Z,1006.2
2023-05-05T02:02:03.508Z,1006.2
2023-05-05T02:03:04.373Z,1006.2
2023-05-05T02:04:05.336Z,1006.3
2023-05-05T02:05:06.259Z,1006.3
2023-05-05T02:06:07.330Z,1006.3
2023-05-05T02:07:08.312Z,1006.3
2023-05-05T02:08:09.266Z,1006.2
2023-05-05T02:09:10.277Z,1006.2
2023-05-05T02:10:11.296Z,1006.2
2023-05-05T02:11:12.318Z,1006.2
2023-05-05T02:12:13.400Z,1006.2
2023-05-05T02:13:14.366Z,1006.2
2023-05-05T02:14:15.289Z,1006.2
2023-05-05T02:15:16.541Z,1006.2
2023-05-05T02:16:17.807Z,1006.2
2023-05-05T02:17:18.297Z,1006.2
2023-05-05T02:18:19.401Z,1006.2
2023-05-05T02:19:20.742Z,1006.2
2023-05-05T02:20:22.310Z,1006.2
2023-05-05T02:21:23.364Z,1006.2
2023-05-05T02:22:24.294Z,1006.2
2023-05-05T02:23:25.299Z,1006.2
2023-05-05T02:24:26.289Z,1006.1
2023-05-05T02:25:27.279Z,1006.1
2023-05-05T02:26:28.302Z,1006.1
2023-05-05T02:27:29.303Z,1006.1
2023-05-05T02:28:30.384Z,1006.2
2023-05-05T02:29:31.342Z,1005.6
2023-05-05T02:30:32.348Z,1006
2023-05-05T02:31:33.326Z,1006.1
2023-05-05T02:32:34.359Z,1006.1
2023-05-05T02:33:35.293Z,1006.2
2023-05-05T02:34:36.323Z,1006.1
2023-05-05T02:35:40.247Z,1006.1
2023-05-05T02:36:41.239Z,1006.1
2023-05-05T02:37:42.282Z,1006.1
2023-05-05T02:38:43.442Z,1006
2023-05-05T02:39:44.301Z,1006
2023-05-05T02:40:45.364Z,1006
2023-05-05T02:41:46.305Z,1006
2023-05-05T02:42:47.316Z,1006
2023-05-05T02:43:48.325Z,1006
2023-05-05T02:44:49.303Z,1006.1
2023-05-05T02:45:50.323Z,1006.1
2023-05-05T02:46:51.363Z,1006
2023-05-05T02:47:52.351Z,1006
2023-05-05T02:48:53.324Z,1006
2023-05-05T02:49:54.302Z,1006.1
2023-05-05T02:50:55.286Z,1006
2023-05-05T02:51:56.422Z,1006
2023-05-05T02:52:57.281Z,1006.1
2023-05-05T02:53:58.281Z,1006.1
2023-05-05T02:54:59.236Z,1006
2023-05-05T02:56:00.281Z,1006.1
2023-05-05T02:57:01.343Z,1006.1
2023-05-05T02:58:02.321Z,1006.1
2023-05-05T02:59:03.352Z,1006.1
2023-05-05T03:00:04.340Z,1006.1
2023-05-05T03:01:05.312Z,1006.1
2023-05-05T03:02:06.346Z,1006.1
2023-05-05T03:03:07.367Z,1006.2
2023-05-05T03:04:08.322Z,1006.2
2023-05-05T03:05:09.338Z,1006.2
2023-05-05T03:06:10.302Z,1006.2
2023-05-05T03:07:11.382Z,1006.3
2023-05-05T03:08:12.320Z,1006.3
2023-05-05T03:09:13.329Z,1006.2
2023-05-05T03:10:14.421Z,1006.2
2023-05-05T03:11:15.341Z,1006.2
2023-05-05T03:12:16.321Z,1006.2
2023-05-05T03:13:17.320Z,1006.2
2023-05-05T03:14:18.402Z,1006.2
2023-05-05T03:15:19.305Z,1006.2
2023-05-05T03:16:20.344Z,1006.3
2023-05-05T03:17:21.437Z,1006.2
2023-05-05T03:18:22.310Z,1006.3
2023-05-05T03:19:23.359Z,1006.2
2023-05-05T03:20:24.360Z,1006.3
2023-05-05T03:21:25.287Z,1006.3
2023-05-05T03:22:26.354Z,1006.3
2023-05-05T03:23:27.345Z,1006.3
2023-05-05T03:24:28.367Z,1006.3
2023-05-05T03:25:29.340Z,1006.3
2023-05-05T03:26:30.380Z,1006.3
2023-05-05T03:27:31.370Z,1006.3
2023-05-05T03:28:32.330Z,1006.4
2023-05-05T03:29:33.320Z,1006.4
2023-05-05T03:30:34.304Z,1006.4
2023-05-05T03:31:35.393Z,1006.4
2023-05-05T03:32:36.387Z,1006.3
2023-05-05T03:33:37.382Z,1006.3
2023-05-05T03:34:38.366Z,1006.3
2023-05-05T03:35:39.323Z,1006.4
2023-05-05T03:36:40.322Z,1006.3
2023-05-05T03:37:41.340Z,1006.4
2023-05-05T03:38:42.304Z,1006.4
2023-05-05T03:39:43.719Z,1006.4
2023-05-05T03:40:45.332Z,1006.3
2023-05-05T03:41:46.318Z,1006.3
2023-05-05T03:42:47.321Z,1006.4
2023-05-05T03:43:48.340Z,1006.4
2023-05-05T03:44:49.345Z,1006.4
2023-05-05T03:45:50.383Z,1006.4
2023-05-05T03:46:51.359Z,1006.3
2023-05-05T03:47:52.376Z,1006.3
2023-05-05T03:48:53.338Z,1006.3
2023-05-05T03:49:54.341Z,1006.3
2023-05-05T03:50:55.341Z,1006.3
2023-05-05T03:51:56.345Z,1006.3
2023-05-05T03:52:57.343Z,1006.4
2023-05-05T03:53:58.338Z,1006.3
2023-05-05T03:54:59.339Z,1006.3
2023-05-05T03:56:00.371Z,1006.4
2023-05-05T03:57:01.307Z,1006.4
2023-05-05T03:58:02.440Z,1006.3
2023-05-05T03:59:03.381Z,1006.3
2023-05-05T04:00:04.363Z,1006.3
2023-05-05T04:01:05.362Z,1006.3
2023-05-05T04:02:06.361Z,1006.3
2023-05-05T04:03:07.497Z,1006.2
2023-05-05T04:04:08.377Z,1006.2
2023-05-05T04:05:09.368Z,1006.3
2023-05-05T04:06:10.902Z,1006.3
2023-05-05T04:07:12.403Z,1006.3
2023-05-05T04:08:13.341Z,1006.3
2023-05-05T04:09:14.325Z,1006.3
2023-05-05T04:10:15.392Z,1006.4
2023-05-05T04:11:16.405Z,1006.4
2023-05-05T04:12:17.583Z,1006.4
2023-05-05T04:13:18.359Z,1006.4
2023-05-05T04:14:19.393Z,1006.4
2023-05-05T04:15:20.386Z,1006.4
2023-05-05T04:16:21.838Z,1006.4
2023-05-05T04:17:23.485Z,1006.4
2023-05-05T04:18:24.367Z,1006.4
2023-05-05T04:19:25.368Z,1006.4
2023-05-05T04:20:26.294Z,1006.4
2023-05-05T04:21:27.328Z,1006.4
2023-05-05T04:22:28.349Z,1006.4
2023-05-05T04:23:29.405Z,1006.4
2023-05-05T04:24:30.370Z,1006.3
2023-05-05T04:25:31.346Z,1005.5
2023-05-05T04:26:32.384Z,1006.1
2023-05-05T04:27:33.473Z,1006.3
2023-05-05T04:28:34.331Z,1006.4
2023-05-05T04:29:35.356Z,1006.4
2023-05-05T04:30:36.706Z,1006.4
2023-05-05T04:31:37.359Z,1006.4
2023-05-05T04:32:38.520Z,1006.4
2023-05-05T04:33:39.364Z,1006.4
2023-05-05T04:34:40.378Z,1006.4
2023-05-05T04:35:41.609Z,1006.4
2023-05-05T04:36:42.323Z,1006.4
2023-05-05T04:37:43.603Z,1006.5
2023-05-05T04:38:44.512Z,1006.4
2023-05-05T04:39:45.478Z,1006.5
2023-05-05T04:40:46.408Z,1006.5
2023-05-05T04:41:47.369Z,1006.5
2023-05-05T04:42:48.351Z,1006.6
2023-05-05T04:43:49.342Z,1006.5
2023-05-05T04:44:50.390Z,1006.6
2023-05-05T04:45:51.367Z,1006.5
2023-05-05T04:46:52.447Z,1006.6
2023-05-05T04:47:53.446Z,1006.6
2023-05-05T04:48:54.622Z,1006.5
2023-05-05T04:49:55.391Z,1006.5
2023-05-05T04:50:56.377Z,1006.5
2023-05-05T04:51:57.359Z,1006.5
2023-05-05T04:52:58.402Z,1006.5
2023-05-05T04:53:59.404Z,1006.5
2023-05-05T04:55:00.644Z,1006.5
2023-05-05T04:56:02.664Z,1006.6
2023-05-05T04:57:03.411Z,1006.5
2023-05-05T04:58:04.763Z,1006.6
2023-05-05T04:59:06.402Z,1006.6
2023-05-05T05:00:07.708Z,1006.6
2023-05-05T05:01:08.378Z,1006.6
2023-05-05T05:02:09.376Z,1006.5
2023-05-05T05:03:10.544Z,1006.5
2023-05-05T05:04:11.412Z,1006.5
2023-05-05T05:05:12.425Z,1006.5
2023-05-05T05:06:13.413Z,1006.6
2023-05-05T05:07:14.403Z,1006.6
2023-05-05T05:08:15.355Z,1006.5
2023-05-05T05:09:16.407Z,1006.6
2023-05-05T05:10:17.377Z,1006.5
2023-05-05T05:11:18.710Z,1006.6
2023-05-05T05:12:19.362Z,1006.6
2023-05-05T05:13:20.491Z,1006.6
2023-05-05T05:14:21.319Z,1006.6
2023-05-05T05:15:22.423Z,1006.6
2023-05-05T05:16:23.502Z,1006.6
2023-05-05T05:17:24.439Z,1006.6
2023-05-05T05:18:25.484Z,1006.5
2023-05-05T05:19:26.641Z,1006.6
2023-05-05T05:20:27.406Z,1006.6
2023-05-05T05:21:28.434Z,1006.6
2023-05-05T05:22:29.387Z,1006.6
2023-05-05T05:23:30.404Z,1006.6
2023-05-05T05:24:31.387Z,1006.6
2023-05-05T05:25:32.428Z,1006.7
2023-05-05T05:26:33.417Z,1006.6
2023-05-05T05:27:34.403Z,1006.6
2023-05-05T05:28:35.384Z,1006.6
2023-05-05T05:29:36.383Z,1006.6
2023-05-05T05:30:37.402Z,1006.7
2023-05-05T05:31:38.348Z,1006.7
2023-05-05T05:32:39.416Z,1006.8
2023-05-05T05:33:40.424Z,1006.8
2023-05-05T05:34:41.328Z,1006.8
2023-05-05T05:35:42.384Z,1006.7
2023-05-05T05:36:43.486Z,1006.7
2023-05-05T05:37:44.494Z,1006.7
2023-05-05T05:38:45.402Z,1006.7
2023-05-05T05:39:46.382Z,1006.7
2023-05-05T05:40:47.462Z,1006.8
2023-05-05T05:41:48.408Z,1006.8
2023-05-05T05:42:49.370Z,1006.7
2023-05-05T05:43:50.383Z,1006.8
2023-05-05T05:44:51.333Z,1006.8
2023-05-05T05:45:52.473Z,1006.8
2023-05-05T05:46:53.638Z,1006.8
2023-05-05T05:47:54.368Z,1006.8
2023-05-05T05:48:55.401Z,1006.8
2023-05-05T05:49:56.507Z,1006.8
2023-05-05T05:50:57.389Z,1006.9
2023-05-05T05:51:58.398Z,1006.9
2023-05-05T05:52:59.400Z,1006.9
2023-05-05T05:54:00.381Z,1006.9
2023-05-05T05:55:01.639Z,1006.8
2023-05-05T05:56:02.483Z,1006.8
2023-05-05T05:57:03.500Z,1006.9
2023-05-05T05:58:04.399Z,1006.9
2023-05-05T05:59:05.380Z,1006.9
2023-05-05T06:00:06.759Z,1006.9
2023-05-05T06:01:07.821Z,1006.9
2023-05-05T06:02:09.372Z,1006.9
2023-05-05T06:03:10.537Z,1006.9
2023-05-05T06:04:11.438Z,1006.9
2023-05-05T06:05:12.457Z,1006.9
2023-05-05T06:06:13.430Z,1006.5
2023-05-05T06:07:14.386Z,1006.8
2023-05-05T06:08:15.499Z,1006.9
2023-05-05T06:09:16.437Z,1007
2023-05-05T06:10:27.125Z,1006.9
2023-05-05T06:11:18.420Z,1007
2023-05-05T06:12:19.423Z,1006.9
2023-05-05T06:13:20.401Z,1006.9
2023-05-05T06:14:21.405Z,1007
2023-05-05T06:15:23.537Z,1007
2023-05-05T06:16:24.496Z,1006.9
2023-05-05T06:17:25.382Z,1006.9
2023-05-05T06:18:26.429Z,1006.9
2023-05-05T06:19:27.424Z,1006.9
2023-05-05T06:20:28.493Z,1006.9
2023-05-05T06:21:29.418Z,1006.9
2023-05-05T06:22:30.437Z,1006.9
2023-05-05T06:23:31.420Z,1007
2023-05-05T06:24:32.455Z,1006.9
2023-05-05T06:25:33.473Z,1007
2023-05-05T06:26:34.426Z,1006.9
2023-05-05T06:27:35.477Z,1006.9
2023-05-05T06:28:36.455Z,1006.9
2023-05-05T06:29:37.417Z,1006.9
2023-05-05T06:30:38.604Z,1006.9
2023-05-05T06:31:39.539Z,1006.9
2023-05-05T06:32:40.475Z,1006.9
2023-05-05T06:33:41.424Z,1007
2023-05-05T06:34:42.460Z,1007
2023-05-05T06:35:43.479Z,1006.9
2023-05-05T06:36:44.492Z,1006.9
2023-05-05T06:37:45.448Z,1006.9
2023-05-05T06:38:46.428Z,1006.9
2023-05-05T06:39:47.469Z,1006.9
2023-05-05T06:40:48.447Z,1006.9
2023-05-05T06:41:49.421Z,1006.9
2023-05-05T06:42:50.360Z,1006.9
2023-05-05T06:43:51.460Z,1006.9
2023-05-05T06:44:52.425Z,1006.9
2023-05-05T06:45:53.462Z,1007
2023-05-05T06:46:54.432Z,1006.9
2023-05-05T06:47:55.518Z,1006.9
2023-05-05T06:48:56.539Z,1006.9
2023-05-05T06:49:57.409Z,1006.9
2023-05-05T06:50:58.904Z,1006.9
2023-05-05T06:51:59.439Z,1007
2023-05-05T06:53:00.450Z,1007
2023-05-05T06:54:01.424Z,1007
2023-05-05T06:55:02.401Z,1006.9
2023-05-05T06:56:03.479Z,1006.9
2023-05-05T06:57:04.562Z,1006.9
2023-05-05T06:58:05.410Z,1006.9
2023-05-05T06:59:06.422Z,1006.9
2023-05-05T07:00:07.814Z,1006.9
2023-05-05T07:01:08.456Z,1006.9
2023-05-05T07:02:09.458Z,1006.6
2023-05-05T07:03:10.548Z,1006.8
2023-05-05T07:04:11.497Z,1006.9
2023-05-05T07:05:12.422Z,1006.9
2023-05-05T07:06:13.561Z,1006.9
2023-05-05T07:07:14.461Z,1006.9
2023-05-05T07:08:15.476Z,1006.8
2023-05-05T07:09:17.195Z,1006.9
2023-05-05T07:10:17.456Z,1006.8
2023-05-05T07:11:21.311Z,1006.8
2023-05-05T07:12:22.467Z,1006.9
2023-05-05T07:13:23.570Z,1006.9
2023-05-05T07:14:24.656Z,1006.9
2023-05-05T07:15:28.471Z,1006.9
2023-05-05T07:16:27.511Z,1006.9
2023-05-05T07:17:28.437Z,1006.8
2023-05-05T07:18:29.540Z,1006.9
2023-05-05T07:19:30.488Z,1006.9
2023-05-05T07:20:31.451Z,1006.9
2023-05-05T07:21:32.618Z,1006.9
2023-05-05T07:22:33.527Z,1006.9
2023-05-05T07:23:34.483Z,1006.8
2023-05-05T07:24:35.448Z,1006.9
2023-05-05T07:25:36.484Z,1006.8
2023-05-05T07:26:37.424Z,1006.8
2023-05-05T07:27:38.502Z,1006.8
2023-05-05T07:28:39.448Z,1006.8
2023-05-05T07:29:40.498Z,1006.8
2023-05-05T07:30:41.464Z,1006.8
2023-05-05T07:31:42.828Z,1006.8
2023-05-05T07:32:43.614Z,1006.8
2023-05-05T07:33:44.792Z,1006.8
2023-05-05T07:34:45.413Z,1006.8
2023-05-05T07:35:46.482Z,1006.9
2023-05-05T07:36:47.587Z,1006.9
2023-05-05T07:37:48.482Z,1006.9
2023-05-05T07:38:49.455Z,1006.8
2023-05-05T07:39:50.562Z,1006.9
2023-05-05T07:40:51.563Z,1006.8
2023-05-05T07:41:52.461Z,1006.8
2023-05-05T07:42:53.463Z,1006.8
2023-05-05T07:43:54.501Z,1006.8
2023-05-05T07:44:55.468Z,1006.8
2023-05-05T07:45:56.528Z,1006.8
2023-05-05T07:46:57.479Z,1006.8
2023-05-05T07:47:58.708Z,1006.8
2023-05-05T07:48:59.639Z,1006.7
2023-05-05T07:50:00.855Z,1006.8
2023-05-05T07:51:02.428Z,1006.8
2023-05-05T07:52:03.748Z,1006.8
2023-05-05T07:53:13.434Z,1006.8
2023-05-05T07:54:05.480Z,1006.8
2023-05-05T07:55:06.501Z,1006.8
2023-05-05T07:56:07.481Z,1006.8
2023-05-05T07:57:08.543Z,1006.8
2023-05-05T07:58:09.454Z,1006.8
2023-05-05T07:59:10.568Z,1006.8
2023-05-05T08:00:11.907Z,1006.8
2023-05-05T08:01:13.532Z,1006.7
2023-05-05T08:02:14.523Z,1006.7
2023-05-05T08:03:16.142Z,1006.8
2023-05-05T08:04:17.567Z,1006.7
2023-05-05T08:05:18.461Z,1006.7
2023-05-05T08:06:19.459Z,1006.7
2023-05-05T08:07:20.577Z,1006.7
2023-05-05T08:08:21.599Z,1006.8
2023-05-05T08:09:22.517Z,1006.7
2023-05-05T08:10:23.539Z,1006.8
2023-05-05T08:11:24.562Z,1006.7
2023-05-05T08:12:26.001Z,1006.7
2023-05-05T08:13:27.540Z,1006.7
2023-05-05T08:14:28.981Z,1006.7
2023-05-05T08:15:30.590Z,1006.7
2023-05-05T08:16:31.792Z,1006.7
2023-05-05T08:17:32.597Z,1006.7
2023-05-05T08:18:33.484Z,1006.7
2023-05-05T08:19:34.460Z,1006.7
2023-05-05T08:20:35.522Z,1006.8
2023-05-05T08:21:36.507Z,1006.7
2023-05-05T08:22:37.607Z,1006.8
2023-05-05T08:23:38.534Z,1006.7
2023-05-05T08:24:39.518Z,1006.8
2023-05-05T08:25:40.483Z,1006.7
2023-05-05T08:26:41.581Z,1006.7
2023-05-05T08:27:42.613Z,1006.8
2023-05-05T08:28:43.564Z,1006.8
2023-05-05T08:29:44.524Z,1006.7
2023-05-05T08:30:45.505Z,1006.7
2023-05-05T08:31:46.510Z,1006.7
2023-05-05T08:32:47.504Z,1006.7
2023-05-05T08:33:48.723Z,1006.8
2023-05-05T08:34:49.563Z,1006.8
2023-05-05T08:35:50.471Z,1006.8
2023-05-05T08:36:51.543Z,1006.7
2023-05-05T08:37:52.566Z,1006.7
2023-05-05T08:38:53.506Z,1006.8
2023-05-05T08:39:54.447Z,1006.7
2023-05-05T08:40:55.475Z,1006.8
2023-05-05T08:41:56.498Z,1006.8
2023-05-05T08:42:57.645Z,1006.8
2023-05-05T08:43:58.605Z,1006.8
2023-05-05T08:44:59.562Z,1006.8
2023-05-05T08:46:00.562Z,1006.8
2023-05-05T08:47:01.591Z,1006.8
2023-05-05T08:48:02.562Z,1006.8
2023-05-05T08:49:03.540Z,1006.8
2023-05-05T08:50:04.612Z,1006.8
2023-05-05T08:51:05.777Z,1006.8
2023-05-05T08:52:06.539Z,1006.8
2023-05-05T08:53:07.629Z,1006.8
2023-05-05T08:54:08.486Z,1006.8
2023-05-05T08:55:09.618Z,1006.7
2023-05-05T08:56:10.564Z,1006.7
2023-05-05T08:57:11.518Z,1006.7
2023-05-05T08:58:12.560Z,1006.7
2023-05-05T08:59:13.499Z,1006.7
2023-05-05T09:00:14.588Z,1006.7
2023-05-05T09:01:15.512Z,1006.7
2023-05-05T09:02:16.644Z,1006.6
2023-05-05T09:03:17.674Z,1006.7
2023-05-05T09:04:20.007Z,1006.6
2023-05-05T09:05:21.474Z,1006.7
2023-05-05T09:06:22.623Z,1006.7
2023-05-05T09:07:23.517Z,1006.7
2023-05-05T09:08:24.709Z,1006.7
2023-05-05T09:09:25.939Z,1006.7
2023-05-05T09:10:30.358Z,1006.6
2023-05-05T09:11:31.508Z,1006.6
2023-05-05T09:12:32.629Z,1006.6
2023-05-05T09:15:13.321Z,1006.6
2023-05-05T09:16:14.591Z,1006.6
2023-05-05T09:17:15.558Z,1006.6
2023-05-05T09:18:16.558Z,1006.6
2023-05-05T09:19:18.020Z,1006.6
2023-05-05T09:20:19.577Z,1006.6
2023-05-05T09:21:20.600Z,1006.6
2023-05-05T09:22:21.522Z,1006.6
2023-05-05T09:23:22.542Z,1006.6
2023-05-05T09:24:23.866Z,1006.6
2023-05-05T09:25:24.500Z,1006.6
2023-05-05T09:26:25.539Z,1006.6
2023-05-05T09:27:26.596Z,1006.6
2023-05-05T09:28:27.507Z,1006.5
2023-05-05T09:29:29.482Z,1006.5
2023-05-05T09:30:30.600Z,1006.6
2023-05-05T09:31:31.629Z,1006.6
2023-05-05T09:32:32.545Z,1006.6
2023-05-05T09:33:33.566Z,1006.3
2023-05-05T09:34:34.541Z,1006.5
2023-05-05T09:35:35.566Z,1006.5
2023-05-05T09:36:36.561Z,1006.5
2023-05-05T09:37:37.557Z,1006.6
2023-05-05T09:38:39.088Z,1006.6
2023-05-05T09:39:40.702Z,1006.5
2023-05-05T09:40:41.606Z,1006.5
2023-05-05T09:41:42.799Z,1006.5
2023-05-05T09:42:44.648Z,1006.5
2023-05-05T09:43:45.596Z,1006.5
2023-05-05T09:44:46.562Z,1006.5
2023-05-05T09:45:47.603Z,1006
2023-05-05T09:46:48.714Z,1006.4
2023-05-05T09:47:49.610Z,1006.5
2023-05-05T09:48:50.542Z,1006.5
2023-05-05T09:49:51.501Z,1006.5
2023-05-05T09:50:52.552Z,1006.5
2023-05-05T09:51:53.493Z,1006.6
2023-05-05T09:52:54.490Z,1006.6
2023-05-05T09:53:55.471Z,1006.6
2023-05-05T09:54:56.563Z,1006.6
2023-05-05T09:55:58.135Z,1006.6
2023-05-05T09:57:00.072Z,1006.5
2023-05-05T09:58:01.561Z,1006.6
2023-05-05T09:59:02.501Z,1006.6
2023-05-05T10:00:03.790Z,1006.6
2023-05-05T10:01:04.761Z,1006.5
2023-05-05T10:02:05.559Z,1006.5
2023-05-05T10:03:06.807Z,1006.5
2023-05-05T10:04:07.517Z,1006.5
2023-05-05T10:05:08.578Z,1006.5
2023-05-05T10:06:09.574Z,1006.5
2023-05-05T10:07:10.716Z,1006.5
2023-05-05T10:08:11.490Z,1006.5
2023-05-05T10:09:12.566Z,1006.5
2023-05-05T10:10:13.570Z,1006.5
2023-05-05T10:11:14.960Z,1006.5
2023-05-05T10:12:16.599Z,1006.5
2023-05-05T10:13:17.632Z,1006.5
2023-05-05T10:14:18.725Z,1006.5
2023-05-05T10:15:19.685Z,1006.5
2023-05-05T10:16:20.594Z,1006.5
2023-05-05T10:17:21.556Z,1006.5
2023-05-05T10:18:22.534Z,1006.5
2023-05-05T10:19:23.614Z,1006.5
2023-05-05T10:20:24.582Z,1006.5
2023-05-05T10:21:26.306Z,1006.4
2023-05-05T10:22:27.882Z,1006.5
2023-05-05T10:23:28.595Z,1006.5
2023-05-05T10:24:29.579Z,1006.5
2023-05-05T10:25:30.632Z,1006.4
2023-05-05T10:26:31.596Z,1006.4
2023-05-05T10:27:32.578Z,1006.4
2023-05-05T10:28:33.565Z,1006.4
2023-05-05T10:29:35.381Z,1006.4
2023-05-05T10:30:36.837Z,1006.4
2023-05-05T10:31:37.749Z,1006.4
2023-05-05T10:33:40.693Z,1006.4
2023-05-05T10:34:41.581Z,1006.4
2023-05-05T10:35:42.803Z,1006.4
2023-05-05T10:36:43.645Z,1006.4
2023-05-05T10:37:44.662Z,1006.4
2023-05-05T10:38:45.632Z,1006.4
2023-05-05T10:39:46.591Z,1006.5
2023-05-05T10:40:47.697Z,1006.4
2023-05-05T10:41:48.662Z,1006.4
2023-05-05T10:42:49.553Z,1006.3
2023-05-05T10:43:50.705Z,1006.3
2023-05-05T10:44:51.628Z,1006.3
2023-05-05T10:45:52.687Z,1006.3
2023-05-05T10:46:54.014Z,1006.3
2023-05-05T10:47:55.621Z,1006.3
2023-05-05T10:48:56.679Z,1006.4
2023-05-05T10:49:57.552Z,1006.4
2023-05-05T10:50:58.573Z,1006.3
2023-05-05T10:51:59.588Z,1006.3
2023-05-05T10:53:00.694Z,1006.3
2023-05-05T10:54:01.613Z,1006.3
2023-05-05T10:55:02.586Z,1006.3
2023-05-05T10:56:03.617Z,1006.3
2023-05-05T10:57:04.871Z,1006.3
2023-05-05T10:58:05.622Z,1006.3
2023-05-05T10:59:06.572Z,1006.2
2023-05-05T11:00:07.817Z,1006.2
2023-05-05T11:01:08.645Z,1006.2
2023-05-05T11:02:09.646Z,1006.3
2023-05-05T11:03:10.579Z,1006.3
2023-05-05T11:04:11.602Z,1006.4
2023-05-05T11:05:12.601Z,1006.3
2023-05-05T11:06:13.638Z,1006.3
2023-05-05T11:07:14.977Z,1006.2
2023-05-05T11:08:15.630Z,1006.3
2023-05-05T11:09:16.562Z,1006.2
2023-05-05T11:10:17.645Z,1006.2
2023-05-05T11:11:19.203Z,1006.2
2023-05-05T11:12:20.603Z,1006.2
2023-05-05T11:13:21.708Z,1006.2
2023-05-05T11:14:22.629Z,1006.2
2023-05-05T11:15:23.715Z,1006.2
2023-05-05T11:16:24.641Z,1006.1
2023-05-05T11:17:25.666Z,1006.2
2023-05-05T11:18:26.651Z,1006.1
2023-05-05T11:19:27.570Z,1006.1
2023-05-05T11:20:28.721Z,1006.1
2023-05-05T11:21:29.577Z,1006.1
2023-05-05T11:22:30.703Z,1006.1
2023-05-05T11:23:31.601Z,1006.1
2023-05-05T11:24:32.600Z,1006.1
2023-05-05T11:25:33.656Z,1006.1
2023-05-05T11:26:34.680Z,1006.1
2023-05-05T11:27:35.658Z,1006
2023-05-05T11:28:36.630Z,1006
2023-05-05T11:29:37.622Z,1006
2023-05-05T11:30:38.641Z,1006
2023-05-05T11:31:39.713Z,1005.9
2023-05-05T11:32:40.569Z,1005.9
2023-05-05T11:33:41.639Z,1005.9
2023-05-05T11:34:42.622Z,1005.9
2023-05-05T11:35:43.720Z,1005.9
2023-05-05T11:36:45.153Z,1005.9
2023-05-05T11:37:46.648Z,1005.8
2023-05-05T11:38:47.661Z,1005.9
2023-05-05T11:39:48.759Z,1005.9
2023-05-05T11:40:49.609Z,1005.8
2023-05-05T11:41:50.663Z,1005.8
2023-05-05T11:42:51.744Z,1005.8
2023-05-05T11:43:52.721Z,1005.7
2023-05-05T11:44:53.542Z,1005.5
2023-05-05T11:45:54.567Z,1005.7
2023-05-05T11:46:56.479Z,1005.8
2023-05-05T11:47:57.635Z,1005.8
2023-05-05T11:48:58.868Z,1005.8
2023-05-05T11:49:59.655Z,1005.8
2023-05-05T11:51:00.997Z,1005.8
2023-05-05T11:52:02.619Z,1005.8
2023-05-05T11:53:03.703Z,1005.8
2023-05-05T11:54:04.709Z,1005.8
2023-05-05T11:55:05.720Z,1005.8
2023-05-05T11:56:06.595Z,1005.8
2023-05-05T11:57:07.730Z,1005.9
2023-05-05T11:58:08.602Z,1005.9
2023-05-05T11:59:09.837Z,1005.8
2023-05-05T12:00:10.921Z,1005.8
2023-05-05T12:01:11.772Z,1005.7
2023-05-05T12:02:12.626Z,1005.7
2023-05-05T12:03:14.241Z,1005.8
2023-05-05T12:04:15.746Z,1005.8
2023-05-05T12:05:16.608Z,1005.8
2023-05-05T12:06:17.612Z,1005.8
2023-05-05T12:07:18.659Z,1005.7
2023-05-05T12:08:20.025Z,1005.8
2023-05-05T12:09:21.627Z,1005.8
2023-05-05T12:10:22.663Z,1005.8
2023-05-05T12:11:23.713Z,1005.9
2023-05-05T12:12:24.768Z,1005.8
2023-05-05T12:13:25.683Z,1005.8
2023-05-05T12:14:26.663Z,1005.4
2023-05-05T12:15:27.633Z,1005.7
2023-05-05T12:16:28.860Z,1005.7
2023-05-05T12:17:29.636Z,1005.7
2023-05-05T12:18:30.686Z,1005.7
2023-05-05T12:19:31.629Z,1005.7
2023-05-05T12:20:32.686Z,1005.7
2023-05-05T12:21:33.639Z,1005.6
2023-05-05T12:22:34.648Z,1005.6
2023-05-05T12:23:36.697Z,1005.6
2023-05-05T12:24:37.640Z,1005.7
2023-05-05T12:25:38.926Z,1005.7
2023-05-05T12:26:40.670Z,1005.7
2023-05-05T12:27:41.813Z,1005.7
2023-05-05T12:28:44.062Z,1005.7
2023-05-05T12:29:45.632Z,1005.8
2023-05-05T12:30:46.690Z,1005.7
2023-05-05T12:31:47.631Z,1005.7
2023-05-05T12:32:48.588Z,1005.7
2023-05-05T12:33:49.582Z,1005.7
2023-05-05T12:34:50.673Z,1005.8
2023-05-05T12:35:51.621Z,1005.8
2023-05-05T12:36:52.615Z,1005.8
2023-05-05T12:37:53.607Z,1005.7
2023-05-05T12:38:54.618Z,1005.6
2023-05-05T12:39:55.690Z,1005.6
2023-05-05T12:40:56.604Z,1005.7
2023-05-05T12:41:57.595Z,1005.7
2023-05-05T12:42:58.654Z,1005.8
2023-05-05T12:43:59.690Z,1005.7
2023-05-05T12:45:00.663Z,1005.6
2023-05-05T12:46:01.985Z,1005.6
2023-05-05T12:47:02.743Z,1005.6
2023-05-05T12:48:03.920Z,1005.6